Aviation Digital Data Service (ADDS)

Output produced by METARs form (1506 UTC 22 April 2019)
found at http://www.aviationweather.gov/metar/data/
 
METAR text: RORS 221000Z 14009KT 9999 FEW005 26/25 Q1009
Conditions at: RORS (SHIMOJI-SHIMA IS, JP) observed 1000 UTC 22 April 2019
Temperature: 26.0°C (79°F)
Dewpoint: 25.0°C (77°F) [RH = 94%]
Pressure (altimeter): 29.79 inches Hg (1009.0 mb)
Winds: from the SE (140 degrees) at 10 MPH (9 knots; 4.6 m/s)
Visibility: 6 or more miles (10+ km)
Ceiling: at least 12,000 feet AGL
Clouds: few clouds at 500 feet AGL
Weather: no significant weather observed at this time

METAR text: RORS 220900Z 15010KT 9999 FEW004 BKN011 27/25 Q1009
Conditions at: RORS (SHIMOJI-SHIMA IS, JP) observed 0900 UTC 22 April 2019
Temperature: 27.0°C (81°F)
Dewpoint: 25.0°C (77°F) [RH = 89%]
Pressure (altimeter): 29.79 inches Hg (1009.0 mb)
Winds: from the SSE (150 degrees) at 12 MPH (10 knots; 5.1 m/s)
Visibility: 6 or more miles (10+ km)
Ceiling: 1100 feet AGL
Clouds: few clouds at 400 feet AGL
broken clouds at 1100 feet AGL
Weather: no significant weather observed at this time

METAR text: RORS 220800Z 16010KT 9999 FEW004 SCT009 27/25 Q1008
Conditions at: RORS (SHIMOJI-SHIMA IS, JP) observed 0800 UTC 22 April 2019
Temperature: 27.0°C (81°F)
Dewpoint: 25.0°C (77°F) [RH = 89%]
Pressure (altimeter): 29.76 inches Hg (1008.0 mb)
Winds: from the SSE (160 degrees) at 12 MPH (10 knots; 5.1 m/s)
Visibility: 6 or more miles (10+ km)
Ceiling: at least 12,000 feet AGL
Clouds: few clouds at 400 feet AGL
scattered clouds at 900 feet AGL
Weather: no significant weather observed at this time

METAR text: RORS 220700Z 15008KT 120V190 9999 FEW004 BKN010 28/26 Q1009
Conditions at: RORS (SHIMOJI-SHIMA IS, JP) observed 0700 UTC 22 April 2019
Temperature: 28.0°C (82°F)
Dewpoint: 26.0°C (79°F) [RH = 89%]
Pressure (altimeter): 29.79 inches Hg (1009.0 mb)
Winds: from the SSE (150 degrees) at 9 MPH (8 knots; 4.1 m/s)
Visibility: 6 or more miles (10+ km)
Ceiling: 1000 feet AGL
Clouds: few clouds at 400 feet AGL
broken clouds at 1000 feet AGL
Weather: no significant weather observed at this time

METAR text: RORS 220623Z 16010KT 140V210 9999 SCT004 BKN010 28/26 Q1009 RMK 3ST004 5CU010 A2982
Conditions at: RORS (SHIMOJI-SHIMA IS, JP) observed 0623 UTC 22 April 2019
Temperature: 28.0°C (82°F)
Dewpoint: 26.0°C (79°F) [RH = 89%]
Pressure (altimeter): 29.79 inches Hg (1009.0 mb)
Winds: from the SSE (160 degrees) at 12 MPH (10 knots; 5.1 m/s)
Visibility: 6 or more miles (10+ km)
Ceiling: 1000 feet AGL
Clouds: scattered clouds at 400 feet AGL
broken clouds at 1000 feet AGL
Weather: no significant weather observed at this time

METAR text: RORS 220600Z 16009KT 140V200 9999 FEW004 BKN009 28/25 Q1009
Conditions at: RORS (SHIMOJI-SHIMA IS, JP) observed 0600 UTC 22 April 2019
Temperature: 28.0°C (82°F)
Dewpoint: 25.0°C (77°F) [RH = 84%]
Pressure (altimeter): 29.79 inches Hg (1009.0 mb)
Winds: from the SSE (160 degrees) at 10 MPH (9 knots; 4.6 m/s)
Visibility: 6 or more miles (10+ km)
Ceiling: 900 feet AGL
Clouds: few clouds at 400 feet AGL
broken clouds at 900 feet AGL
Weather: no significant weather observed at this time

METAR text: RORS 220500Z 15010KT 110V180 9999 FEW004 SCT008 29/26 Q1009
Conditions at: RORS (SHIMOJI-SHIMA IS, JP) observed 0500 UTC 22 April 2019
Temperature: 29.0°C (84°F)
Dewpoint: 26.0°C (79°F) [RH = 84%]
Pressure (altimeter): 29.79 inches Hg (1009.0 mb)
Winds: from the SSE (150 degrees) at 12 MPH (10 knots; 5.1 m/s)
Visibility: 6 or more miles (10+ km)
Ceiling: at least 12,000 feet AGL
Clouds: few clouds at 400 feet AGL
scattered clouds at 800 feet AGL
Weather: no significant weather observed at this time

METAR text: RORS 220400Z 16013KT 9999 FEW003 28/25 Q1010
Conditions at: RORS (SHIMOJI-SHIMA IS, JP) observed 0400 UTC 22 April 2019
Temperature: 28.0°C (82°F)
Dewpoint: 25.0°C (77°F) [RH = 84%]
Pressure (altimeter): 29.82 inches Hg (1010.0 mb)
Winds: from the SSE (160 degrees) at 15 MPH (13 knots; 6.7 m/s)
Visibility: 6 or more miles (10+ km)
Ceiling: at least 12,000 feet AGL
Clouds: few clouds at 300 feet AGL
Weather: no significant weather observed at this time

METAR text: RORS 220300Z 16012KT 9999 FEW003 28/25 Q1010
Conditions at: RORS (SHIMOJI-SHIMA IS, JP) observed 0300 UTC 22 April 2019
Temperature: 28.0°C (82°F)
Dewpoint: 25.0°C (77°F) [RH = 84%]
Pressure (altimeter): 29.82 inches Hg (1010.0 mb)
Winds: from the SSE (160 degrees) at 14 MPH (12 knots; 6.2 m/s)
Visibility: 6 or more miles (10+ km)
Ceiling: at least 12,000 feet AGL
Clouds: few clouds at 300 feet AGL
Weather: no significant weather observed at this time

METAR text: RORS 220200Z 16009KT 9999 FEW007 SCT070 28/25 Q1011
Conditions at: RORS (SHIMOJI-SHIMA IS, JP) observed 0200 UTC 22 April 2019
Temperature: 28.0°C (82°F)
Dewpoint: 25.0°C (77°F) [RH = 84%]
Pressure (altimeter): 29.85 inches Hg (1011.0 mb)
Winds: from the SSE (160 degrees) at 10 MPH (9 knots; 4.6 m/s)
Visibility: 6 or more miles (10+ km)
Ceiling: at least 12,000 feet AGL
Clouds: few clouds at 700 feet AGL
scattered clouds at 7000 feet AGL
Weather: no significant weather observed at this time

METAR text: RORS 220100Z 16008KT 9999 FEW004 SCT009 27/25 Q1011
Conditions at: RORS (SHIMOJI-SHIMA IS, JP) observed 0100 UTC 22 April 2019
Temperature: 27.0°C (81°F)
Dewpoint: 25.0°C (77°F) [RH = 89%]
Pressure (altimeter): 29.85 inches Hg (1011.0 mb)
Winds: from the SSE (160 degrees) at 9 MPH (8 knots; 4.1 m/s)
Visibility: 6 or more miles (10+ km)
Ceiling: at least 12,000 feet AGL
Clouds: few clouds at 400 feet AGL
scattered clouds at 900 feet AGL
Weather: no significant weather observed at this time

METAR text: RORS 220000Z 14009KT 9999 FEW009 SCT080 27/25 Q1010
Conditions at: RORS (SHIMOJI-SHIMA IS, JP) observed 0000 UTC 22 April 2019
Temperature: 27.0°C (81°F)
Dewpoint: 25.0°C (77°F) [RH = 89%]
Pressure (altimeter): 29.82 inches Hg (1010.0 mb)
Winds: from the SE (140 degrees) at 10 MPH (9 knots; 4.6 m/s)
Visibility: 6 or more miles (10+ km)
Ceiling: at least 12,000 feet AGL
Clouds: few clouds at 900 feet AGL
scattered clouds at 8000 feet AGL
Weather: no significant weather observed at this time

METAR text: RORS 212300Z 14008KT 9999 FEW018 BKN080 25/24 Q1010
Conditions at: RORS (SHIMOJI-SHIMA IS, JP) observed 2300 UTC 21 April 2019
Temperature: 25.0°C (77°F)
Dewpoint: 24.0°C (75°F) [RH = 94%]
Pressure (altimeter): 29.82 inches Hg (1010.0 mb)
Winds: from the SE (140 degrees) at 9 MPH (8 knots; 4.1 m/s)
Visibility: 6 or more miles (10+ km)
Ceiling: 8000 feet AGL
Clouds: few clouds at 1800 feet AGL
broken clouds at 8000 feet AGL
Weather: no significant weather observed at this time

METAR text: RORS 212200Z 12003KT 9999 FEW020 BKN080 24/23 Q1009
Conditions at: RORS (SHIMOJI-SHIMA IS, JP) observed 2200 UTC 21 April 2019
Temperature: 24.0°C (75°F)
Dewpoint: 23.0°C (73°F) [RH = 94%]
Pressure (altimeter): 29.79 inches Hg (1009.0 mb)
Winds: from the ESE (120 degrees) at 3 MPH (3 knots; 1.5 m/s)
Visibility: 6 or more miles (10+ km)
Ceiling: 8000 feet AGL
Clouds: few clouds at 2000 feet AGL
broken clouds at 8000 feet AGL
Weather: no significant weather observed at this time

METAR text: RORS 211000Z 07002KT 9999 FEW013 BKN090 25/23 Q1009
Conditions at: RORS (SHIMOJI-SHIMA IS, JP) observed 1000 UTC 21 April 2019
Temperature: 25.0°C (77°F)
Dewpoint: 23.0°C (73°F) [RH = 89%]
Pressure (altimeter): 29.79 inches Hg (1009.0 mb)
Winds: from the ENE (70 degrees) at 2 MPH (2 knots; 1.0 m/s)
Visibility: 6 or more miles (10+ km)
Ceiling: 9000 feet AGL
Clouds: few clouds at 1300 feet AGL
broken clouds at 9000 feet AGL
Weather: no significant weather observed at this time

METAR text: RORS 210900Z 02004KT 9999 FEW013 BKN090 26/23 Q1008
Conditions at: RORS (SHIMOJI-SHIMA IS, JP) observed 0900 UTC 21 April 2019
Temperature: 26.0°C (79°F)
Dewpoint: 23.0°C (73°F) [RH = 84%]
Pressure (altimeter): 29.76 inches Hg (1008.0 mb)
Winds: from the NNE (20 degrees) at 5 MPH (4 knots; 2.1 m/s)
Visibility: 6 or more miles (10+ km)
Ceiling: 9000 feet AGL
Clouds: few clouds at 1300 feet AGL
broken clouds at 9000 feet AGL
Weather: no significant weather observed at this time

METAR text: RORS 210800Z 35004KT 9999 FEW013 SCT060 BKN070 26/23 Q1008
Conditions at: RORS (SHIMOJI-SHIMA IS, JP) observed 0800 UTC 21 April 2019
Temperature: 26.0°C (79°F)
Dewpoint: 23.0°C (73°F) [RH = 84%]
Pressure (altimeter): 29.76 inches Hg (1008.0 mb)
Winds: from the N (350 degrees) at 5 MPH (4 knots; 2.1 m/s)
Visibility: 6 or more miles (10+ km)
Ceiling: 7000 feet AGL
Clouds: few clouds at 1300 feet AGL
scattered clouds at 6000 feet AGL
broken clouds at 7000 feet AGL
Weather: no significant weather observed at this time

METAR text: RORS 210700Z 33006KT 9999 FEW013 BKN060 27/23 Q1008
Conditions at: RORS (SHIMOJI-SHIMA IS, JP) observed 0700 UTC 21 April 2019
Temperature: 27.0°C (81°F)
Dewpoint: 23.0°C (73°F) [RH = 79%]
Pressure (altimeter): 29.76 inches Hg (1008.0 mb)
Winds: from the NNW (330 degrees) at 7 MPH (6 knots; 3.1 m/s)
Visibility: 6 or more miles (10+ km)
Ceiling: 6000 feet AGL
Clouds: few clouds at 1300 feet AGL
broken clouds at 6000 feet AGL
Weather: no significant weather observed at this time

METAR text: RORS 210600Z 33007KT 9999 VCSH FEW012 BKN060 26/24 Q1008
Conditions at: RORS (SHIMOJI-SHIMA IS, JP) observed 0600 UTC 21 April 2019
Temperature: 26.0°C (79°F)
Dewpoint: 24.0°C (75°F) [RH = 89%]
Pressure (altimeter): 29.76 inches Hg (1008.0 mb)
Winds: from the NNW (330 degrees) at 8 MPH (7 knots; 3.6 m/s)
Visibility: 6 or more miles (10+ km)
Ceiling: 6000 feet AGL
Clouds: few clouds at 1200 feet AGL
broken clouds at 6000 feet AGL
Weather: VCSH  (showers in vicinity)

METAR text: RORS 210500Z 28004KT 250V320 9999 SCT010 BKN070 27/24 Q1008
Conditions at: RORS (SHIMOJI-SHIMA IS, JP) observed 0500 UTC 21 April 2019
Temperature: 27.0°C (81°F)
Dewpoint: 24.0°C (75°F) [RH = 84%]
Pressure (altimeter): 29.76 inches Hg (1008.0 mb)
Winds: from the W (280 degrees) at 5 MPH (4 knots; 2.1 m/s)
Visibility: 6 or more miles (10+ km)
Ceiling: 7000 feet AGL
Clouds: scattered clouds at 1000 feet AGL
broken clouds at 7000 feet AGL
Weather: no significant weather observed at this time

METAR text: RORS 210400Z VRB03KT 9999 -RA FEW011 SCT070 BKN/// 27/25 Q1009
Conditions at: RORS (SHIMOJI-SHIMA IS, JP) observed 0400 UTC 21 April 2019
Temperature: 27.0°C (81°F)
Dewpoint: 25.0°C (77°F) [RH = 89%]
Pressure (altimeter): 29.79 inches Hg (1009.0 mb)
Winds: variable direction winds at 3 MPH (3 knots; 1.5 m/s)
Visibility: 6 or more miles (10+ km)
Ceiling: at least 12,000 feet AGL
Clouds: few clouds at 1100 feet AGL
scattered clouds at 7000 feet AGL
Weather: -RA  (light rain)